Welcome to our Virtual Airline
Sign-in:

Flight MFC33831

  • Submitted By: Alan Goodrich
  • Departure Airport: Koyukuk (KYU)
  • Arrival Airport: Kaltag (KAL)
  • Aircraft: CESSNA 207 (N207MM)
  • Flight Time: 00.25.01
  • Date Submitted: 20/04/03
  • Route: STOP-OVER AT NULATO (NUL)
  • Status: Accepted
Flight Details
Gross Revenue:
(4 load / $ 44.00 per unit
$ 176.00
Fuel Cost:
(29.9371 fuel used @ 5.1 / unit)
$ 152.68

Additional Log Information:

View Log

[14:34] ----- Flight Opened -----
[14:34] Cigar Box - 1.1.4.0
[14:34] FS: FSX
[14:34] FSUIPC: v4.966
[14:34] Flight Number: MFC33831
[14:34] FS Aircraft: DHC-2W Misty Moorings 3 Standard Wheels dirty
[14:34] FS Model: DHC2
[14:34] FS Type: deHavilland
[14:34] Departure: KYU
[14:34] Arrival: KAL
[14:34] Flight Level: 2500
[14:34] Flight Type: H
[14:34] Passengers: 4
[14:34] FOB: 190 lbs
[14:34] Gate: 2 - KYU
[14:34] NOTE: Parking Brake Ignored
[14:34] Crash Detection: Disabled
[14:34] Crash Detection Aircraft: Disabled
[14:34] Engines: 1 Piston
[14:34] NOTE: Boarding has started
[14:34] Parking Brake: Engaged
[14:34] Main Door Closed
[14:34] COM1: 134.65
[14:34] COM2: 127.80
[14:34] Transponder: 1200
[14:34] NAV1: 117.20
[14:34] NAV2: 116.80
[14:34] ADF1: 218.0
[14:34] ADF2: 240.0
[14:34] Navigation Mode: GPS
[14:34] Navigation Mode: GPS
[14:34] Engine 1: Started
[14:35] Light Data: Landing lights ON
[14:35] Light Data: Strobe lights ON
[14:35] Light Data: Navigation ON
[14:35] Light Data: Beacon ON
[14:35] Parking Brake: Released
[14:35] NOTE: Pushing back
[14:36] NOTE: Taxi started
[14:37] Flaps: Position 1
[14:37] Flaps: Position 2
[14:37] NOTE: ----- TAKE OFF -----
[14:37] GS: 31 knots
[14:37] TAS: 39 knots
[14:37] IAS: 39 knots
[14:37] VS: 16 fpm
[14:37] FOB: 188 lbs
[14:37] Heading: 275°
[14:37] Pitch: 10°
[14:37] Bank: 0°
[14:37] Aircraft Weight: 3378.62 lbs
[14:37] Nearest Airport: KYU
[14:37] Distance: 0.28 miles
[14:37] Runway: ???
[14:37] Ground Surface: Gravel
[14:37] Ground Condition: Normal
[14:37] NOTE: Weather Report
[14:37] Wind Heading: 230°
[14:37] Wind Speed: 9 knots
[14:37] OAT: 22° C
[14:37] TAT: 23° C
[14:37] Precipitation: None
[14:37] Dew Point: 12° C
[14:37] Visibility: 43 miles
[14:37] METAR:
[14:37] NOTE: Climb started
[14:37] Flaps: Position 1
[14:37] GS: 66 knots
[14:37] TAS: 78 knots
[14:37] IAS: 76 knots
[14:37] VS: 1635 fpm
[14:37] View Mode: Virtual Cockpit
[14:37] Flaps: Position 0
[14:37] GS: 89 knots
[14:37] TAS: 101 knots
[14:37] IAS: 98 knots
[14:37] VS: 1929 fpm
[14:39] FS: Paused
[14:39] FS: Unpaused
[14:42] Flaps: Position 1
[14:42] GS: 97 knots
[14:42] TAS: 104 knots
[14:42] IAS: 101 knots
[14:42] VS: 55 fpm
[14:43] Flaps: Position 2
[14:43] GS: 75 knots
[14:43] TAS: 83 knots
[14:43] IAS: 81 knots
[14:43] VS: 3 fpm
[14:44] Flaps: Position 3
[14:44] GS: 52 knots
[14:44] TAS: 61 knots
[14:44] IAS: 59 knots
[14:44] VS: -608 fpm
[14:44] NOTE: ----- LANDED -----
[14:44] Landing Rate: -97.66 fpm
[14:44] GS: 42 knots
[14:44] TAS: 50 knots
[14:44] IAS: 49 knots
[14:44] VS: -98 fpm
[14:44] FOB: 167 lbs
[14:44] Heading: 202°
[14:44] Pitch: 1°
[14:44] Bank: 0°
[14:44] Aircraft Weight: 3357.81 lbs
[14:44] Nearest Airport: NUL
[14:44] Distance: 0.22 miles
[14:44] Runway: 20 - NUL
[14:44] Ground Surface: Gravel
[14:44] Ground Condition: Normal
[14:44] NOTE: Weather Report
[14:44] Wind Heading: 226°
[14:44] Wind Speed: 8 knots
[14:44] OAT: 22° C
[14:44] TAT: 23° C
[14:44] Precipitation: None
[14:44] Dew Point: 13° C
[14:44] Visibility: 45 miles
[14:44] METAR: KALO 031954Z 32013G21KT 10SM OVC012 01/M02 A3010 RMK AO2 RAE1858UPB1858E01 SLP199 P0000 T00061022 KALN 031950Z 17006KT 10SM BKN090 21/12 A2998 KALB 031951Z 01009KT 10SM -DZ BKN019 BKN024 OVC027 10/06 A2980 RMK AO2 RAE24DZB24 SLP093 PCPN VRY LGT P0000 T01000061 KALW 031953Z 19013G21KT 10SM OVC065 08/M03 A3000 RMK AO2 SLP165 T00781028 KALS 031952Z AUTO 24019G32KT 10SM CLR 15/M19 A2991 RMK AO2 PK WND 22032/1950 SLP070 T01501189 KALM 032015Z AUTO 19016G22KT 10SM CLR 23/M03 A2993 RMK AO2 KALK 031956Z AUTO 23020G30KT 10SM CLR 23/M07 A2995 RMK AO2 PK WND 24030/1956 SLP064 T02281067 KALX 032015Z AUTO 24003KT 10SM CLR 25/04 A2997 RMK AO2 T02470043 KALI 031953Z AUTO 15011KT 10SM FEW047 BKN060 31/21 A2980 RMK AO2 SLP088 T03060211
[14:44] View Mode: Virtual Cockpit
[14:44] NOTE: Taxi started
[14:45] Flaps: Position 2
[14:45] View Mode: Virtual Cockpit
[14:45] Flaps: Position 1
[14:45] GS: 73 knots
[14:45] TAS: 83 knots
[14:45] IAS: 81 knots
[14:45] VS: 1678 fpm
[14:45] Flaps: Position 0
[14:45] GS: 83 knots
[14:45] TAS: 91 knots
[14:45] IAS: 89 knots
[14:45] VS: 1145 fpm
[14:56] FS: Paused
[14:56] FS: Unpaused
[14:57] Recovery: Flight Saved
[14:58] Flaps: Position 1
[14:58] GS: 89 knots
[14:58] TAS: 95 knots
[14:58] IAS: 93 knots
[14:58] VS: -864 fpm
[14:58] Flaps: Position 2
[14:58] GS: 66 knots
[14:58] TAS: 74 knots
[14:58] IAS: 72 knots
[14:58] VS: -661 fpm
[14:59] Flaps: Position 3
[14:59] GS: 62 knots
[14:59] TAS: 69 knots
[14:59] IAS: 67 knots
[14:59] VS: -408 fpm
[15:00] NOTE: ----- LANDED -----
[15:00] Landing Rate: -66.13 fpm
[15:00] GS: 38 knots
[15:00] TAS: 46 knots
[15:00] IAS: 45 knots
[15:00] VS: -67 fpm
[15:00] FOB: 124 lbs
[15:00] Heading: 202°
[15:00] Pitch: 3°
[15:00] Bank: 0°
[15:00] Aircraft Weight: 3314.98 lbs
[15:00] Nearest Airport: KAL
[15:00] Distance: 0.28 miles
[15:00] Runway: 21 - KAL
[15:00] Ground Surface: Gravel
[15:00] Ground Condition: Normal
[15:00] NOTE: Weather Report
[15:00] Wind Heading: 202°
[15:00] Wind Speed: 6 knots
[15:00] OAT: 22° C
[15:00] TAT: 22° C
[15:00] Precipitation: None
[15:00] Dew Point: 13° C
[15:00] Visibility: 54 miles
[15:00] METAR: KALO 031954Z 32013G21KT 10SM OVC012 01/M02 A3010 RMK AO2 RAE1858UPB1858E01 SLP199 P0000 T00061022 KALN 031950Z 17006KT 10SM BKN090 21/12 A2998 KALB 031951Z 01009KT 10SM -DZ BKN019 BKN024 OVC027 10/06 A2980 RMK AO2 RAE24DZB24 SLP093 PCPN VRY LGT P0000 T01000061 KALW 031953Z 19013G21KT 10SM OVC065 08/M03 A3000 RMK AO2 SLP165 T00781028 KALS 031952Z AUTO 24019G32KT 10SM CLR 15/M19 A2991 RMK AO2 PK WND 22032/1950 SLP070 T01501189 KALM 032015Z AUTO 19016G22KT 10SM CLR 23/M03 A2993 RMK AO2 KALK 031956Z AUTO 23020G30KT 10SM CLR 23/M07 A2995 RMK AO2 PK WND 24030/1956 SLP064 T02281067 KALX 032015Z AUTO 24003KT 10SM CLR 25/04 A2997 RMK AO2 T02470043 KALI 031953Z AUTO 15011KT 10SM FEW047 BKN060 31/21 A2980 RMK AO2 SLP088 T03060211
[15:00] View Mode: Virtual Cockpit
[15:00] Flaps: Position 2
[15:00] Flaps: Position 0
[15:00] NOTE: Arrived
[15:00] Parking Brake: Engaged
[15:00] Engine 1: Stopped
[15:01] Light Data: Beacon OFF
[15:01] Light Data: Landing lights OFF
[15:01] Light Data: Navigation OFF
[15:01] Light Data: Strobe lights OFF
[15:01] Parking Brake: Released
[15:01] Parking Brake: Engaged
[15:02] Gate: 1 - KAL
[15:02] NOTE: Flight Completed
[15:02] FS Aircraft: DHC-2W Misty Moorings 3 Standard Wheels dirty
[15:02] FS Model: DHC2
[15:02] FS Type: deHavilland
[15:02] FOB: 124 lbs
[15:02] Fuel Used: 66 lbs
[15:02] Flight Time: 00:25:01
[15:02] Flight Time (Dawn): 00:00:00
[15:02] Flight Time (Day): 00:25:01
[15:02] Flight Time (Dusk): 00:00:00
[15:02] Flight Time (Night): 00:00:00
[15:02] Total Landings: 2
[15:02] MaxSim Rate: 1x
[15:02] Cigar Box - 1.1.4.0
[15:02] ----- Flight Closed -----

Route Map